Time;durP1;ratioP1;P1;durP2;ratioP2;P2;SDS_P1;SDS_P2;PMS_P1;PMS_P2;Temp;Humidity;BMP_temperature;BMP_pressure;BME280_temperature;BME280_humidity;BME280_pressure;Samples;Min_cycle;Max_cycle;Signal;HPM_P1;HPM_P2
2024/04/14 00:00:27;;;;;;;5.97;4.80;;;22.20;99.90;;;;;;5378822;26;20077;-66
2024/04/14 00:02:54;;;;;;;7.18;4.20;;;22.40;99.90;;;;;;5381789;26;20012;-68
2024/04/14 00:05:22;;;;;;;8.90;4.97;;;22.40;99.90;;;;;;5391323;26;20000;-68
2024/04/14 00:07:49;;;;;;;8.25;4.55;;;22.40;99.90;;;;;;5397229;26;20068;-68
2024/04/14 00:10:17;;;;;;;6.30;4.07;;;22.30;99.90;;;;;;5396523;26;20012;-69
2024/04/14 00:12:44;;;;;;;8.23;4.97;;;22.30;99.90;;;;;;5396896;26;20031;-69
2024/04/14 00:15:11;;;;;;;10.05;4.80;;;22.40;99.90;;;;;;5398120;26;20727;-70
2024/04/14 00:17:39;;;;;;;10.15;4.70;;;22.50;99.90;;;;;;5393547;26;20255;-70
2024/04/14 00:20:08;;;;;;;7.55;4.80;;;22.50;99.90;;;;;;5394159;26;20389;-67
2024/04/14 00:22:35;;;;;;;10.30;4.40;;;22.50;99.90;;;;;;5383715;26;20019;-68
2024/04/14 00:25:02;;;;;;;10.23;4.47;;;22.50;99.90;;;;;;5392041;26;20004;-67
2024/04/14 00:27:30;;;;;;;9.32;5.07;;;22.50;99.90;;;;;;5395317;26;20007;-68
2024/04/14 00:29:57;;;;;;;6.63;4.50;;;22.60;99.90;;;;;;5397512;26;19995;-68
2024/04/14 00:32:24;;;;;;;11.18;4.93;;;22.60;99.90;;;;;;5360615;26;20000;-69
2024/04/14 00:34:52;;;;;;;9.45;5.07;;;22.60;99.90;;;;;;5428043;26;20006;-68
2024/04/14 00:37:19;;;;;;;9.98;4.75;;;22.60;99.90;;;;;;5433121;26;20841;-68
2024/04/14 00:39:47;;;;;;;5.82;4.25;;;22.60;99.90;;;;;;5432336;26;20031;-68
2024/04/14 00:42:14;;;;;;;7.57;4.38;;;22.60;99.90;;;;;;5400996;26;20013;-67
2024/04/14 00:44:41;;;;;;;10.55;5.72;;;22.50;99.90;;;;;;5398889;26;20004;-68
2024/04/14 00:47:09;;;;;;;6.10;4.97;;;22.60;99.90;;;;;;5401624;26;20451;-67
2024/04/14 00:49:38;;;;;;;8.35;4.60;;;22.60;99.90;;;;;;5399114;26;20064;-70
2024/04/14 00:52:06;;;;;;;8.52;4.70;;;22.50;99.90;;;;;;5400465;26;20003;-68
2024/04/14 00:54:34;;;;;;;6.75;4.78;;;22.60;99.90;;;;;;5399365;26;20003;-69
2024/04/14 00:57:03;;;;;;;9.55;4.95;;;22.60;99.90;;;;;;5400840;26;20086;-69
2024/04/14 00:59:32;;;;;;;5.50;4.50;;;22.60;99.90;;;;;;5399525;26;20000;-67
2024/04/14 01:01:59;;;;;;;7.20;4.05;;;22.60;99.90;;;;;;5399429;26;20010;-68
2024/04/14 01:04:26;;;;;;;7.47;4.00;;;22.70;99.90;;;;;;5398272;26;20022;-68
2024/04/14 01:06:54;;;;;;;9.27;4.53;;;22.80;99.90;;;;;;5400959;26;20026;-67
2024/04/14 01:09:21;;;;;;;6.43;4.05;;;22.90;99.90;;;;;;5401087;26;20007;-68
2024/04/14 01:11:49;;;;;;;5.88;4.07;;;23.00;99.90;;;;;;5400705;26;20066;-67
2024/04/14 01:14:17;;;;;;;8.02;4.53;;;23.20;99.90;;;;;;5401145;26;20050;-67
2024/04/14 01:16:45;;;;;;;11.80;4.32;;;23.50;99.90;;;;;;5398348;26;20937;-66
2024/04/14 01:19:12;;;;;;;6.88;4.10;;;23.70;99.90;;;;;;5401793;26;19991;-67
2024/04/14 01:21:39;;;;;;;6.18;3.85;;;24.00;99.90;;;;;;5398455;26;20535;-69
2024/04/14 01:24:07;;;;;;;4.45;3.42;;;23.80;99.90;;;;;;5401484;26;20478;-67
2024/04/14 01:26:34;;;;;;;5.78;3.38;;;23.90;99.90;;;;;;5397611;26;20397;-65
2024/04/14 01:29:02;;;;;;;5.55;3.28;;;24.10;99.90;;;;;;5400866;26;20011;-67
2024/04/14 01:31:30;;;;;;;5.95;3.60;;;24.10;99.90;;;;;;5399097;26;20045;-68
2024/04/14 01:33:57;;;;;;;7.57;3.65;;;24.10;99.90;;;;;;5400660;26;20009;-69
2024/04/14 01:36:24;;;;;;;6.90;3.55;;;24.20;99.90;;;;;;5402085;26;20042;-68
2024/04/14 01:38:51;;;;;;;7.30;3.60;;;24.60;99.90;;;;;;5399346;26;20000;-68
2024/04/14 01:41:19;;;;;;;5.85;3.85;;;25.00;99.90;;;;;;5399230;26;20353;-66
2024/04/14 01:43:46;;;;;;;4.32;3.72;;;25.30;99.90;;;;;;5398727;26;20002;-67
2024/04/14 01:46:13;;;;;;;6.00;3.53;;;25.60;99.90;;;;;;5395985;26;20000;-68
2024/04/14 01:48:41;;;;;;;8.88;5.00;;;25.80;99.90;;;;;;5399010;26;20416;-67
2024/04/14 01:51:08;;;;;;;6.15;3.58;;;26.10;99.90;;;;;;5401067;26;19999;-68
2024/04/14 01:53:35;;;;;;;5.65;3.42;;;26.10;99.90;;;;;;5397854;26;19999;-68
2024/04/14 01:56:03;;;;;;;6.03;3.58;;;26.20;99.90;;;;;;5399924;26;20004;-68
2024/04/14 01:58:30;;;;;;;4.35;3.15;;;26.20;99.90;;;;;;5400173;26;19996;-69
2024/04/14 02:00:57;;;;;;;5.93;3.15;;;26.40;99.90;;;;;;5399109;26;19995;-70
2024/04/14 02:03:25;;;;;;;4.63;3.42;;;26.60;99.90;;;;;;5400553;26;20007;-66
2024/04/14 02:05:59;;;;;;;5.32;3.65;;;26.70;99.90;;;;;;5398281;26;20061;-69
2024/04/14 02:08:27;;;;;;;4.15;3.42;;;26.70;99.90;;;;;;5400366;26;20011;-68
2024/04/14 02:10:54;;;;;;;4.45;3.20;;;26.90;99.90;;;;;;5398128;26;20252;-67
2024/04/14 02:13:22;;;;;;;3.97;3.15;;;27.00;99.90;;;;;;5400667;26;20505;-69
2024/04/14 02:15:49;;;;;;;6.43;3.22;;;27.10;99.90;;;;;;5426690;26;19996;-68
2024/04/14 02:18:16;;;;;;;4.85;3.20;;;27.30;99.90;;;;;;5399985;26;19999;-67
2024/04/14 02:20:44;;;;;;;6.07;3.42;;;27.10;99.90;;;;;;5397941;26;20023;-67
2024/04/14 02:23:11;;;;;;;6.82;3.75;;;26.70;99.90;;;;;;5389044;26;20333;-66
2024/04/14 02:25:38;;;;;;;6.32;3.90;;;26.50;99.90;;;;;;5375615;26;20328;-67
2024/04/14 02:28:06;;;;;;;6.68;3.97;;;26.40;99.90;;;;;;5377046;26;20000;-67
2024/04/14 02:30:33;;;;;;;4.68;3.20;;;26.40;99.90;;;;;;5394225;26;20402;-67
2024/04/14 02:33:00;;;;;;;5.63;3.28;;;26.70;99.90;;;;;;5426100;26;20114;-69
2024/04/14 02:35:28;;;;;;;8.23;5.32;;;26.60;99.90;;;;;;5399326;26;20390;-69
2024/04/14 02:37:55;;;;;;;4.75;4.25;;;26.50;99.90;;;;;;5397473;26;20019;-68
2024/04/14 02:40:22;;;;;;;7.65;3.42;;;26.30;99.90;;;;;;5399545;26;20000;-69
2024/04/14 02:42:49;;;;;;;8.85;4.90;;;26.30;99.90;;;;;;5397818;26;20072;-68
2024/04/14 02:45:16;;;;;;;6.50;3.47;;;26.80;99.90;;;;;;5399385;26;20006;-68
2024/04/14 02:47:44;;;;;;;8.18;4.30;;;28.00;99.90;;;;;;5397714;26;19995;-69
2024/04/14 02:50:11;;;;;;;6.68;3.80;;;29.70;97.50;;;;;;5398904;26;20000;-69
2024/04/14 02:52:38;;;;;;;6.88;3.70;;;31.30;93.30;;;;;;5399658;26;19995;-68
2024/04/14 02:55:06;;;;;;;6.68;3.88;;;30.90;92.30;;;;;;5398428;26;20064;-68
2024/04/14 02:57:33;;;;;;;7.47;4.05;;;30.40;93.90;;;;;;5399750;26;20003;-68
2024/04/14 03:00:00;;;;;;;10.15;4.47;;;29.90;94.10;;;;;;5396941;26;19996;-68
2024/04/14 03:02:28;;;;;;;6.20;4.88;;;30.30;95.00;;;;;;5399374;26;20336;-68
2024/04/14 03:04:55;;;;;;;5.80;3.65;;;30.60;93.40;;;;;;5396730;26;20003;-68
2024/04/14 03:07:22;;;;;;;6.97;3.45;;;30.70;93.50;;;;;;5398833;26;20332;-69
2024/04/14 03:09:53;;;;;;;8.25;3.03;;;30.80;94.10;;;;;;5396617;26;20010;-67
2024/04/14 03:12:20;;;;;;;5.97;3.85;;;32.30;92.80;;;;;;5399058;26;20010;-68
2024/04/14 03:14:48;;;;;;;7.15;3.92;;;34.10;91.40;;;;;;5397296;26;19996;-69
2024/04/14 03:17:16;;;;;;;4.18;2.85;;;35.60;88.00;;;;;;5400015;26;19999;-68
2024/04/14 03:19:43;;;;;;;7.15;2.80;;;36.60;83.90;;;;;;5398447;26;20072;-69
2024/04/14 03:22:11;;;;;;;8.18;3.22;;;38.20;78.20;;;;;;5398304;26;19995;-69
2024/04/14 03:24:38;;;;;;;5.78;2.70;;;38.90;76.00;;;;;;5399272;26;20043;-68
2024/04/14 03:27:05;;;;;;;5.63;3.00;;;39.30;73.30;;;;;;5396421;26;19992;-70
2024/04/14 03:29:32;;;;;;;7.47;2.65;;;39.90;71.20;;;;;;5398392;26;19999;-69
2024/04/14 03:32:00;;;;;;;6.53;2.70;;;39.60;70.00;;;;;;5397144;26;19996;-69
2024/04/14 03:34:27;;;;;;;8.43;3.13;;;38.50;70.40;;;;;;5399043;26;20436;-69
2024/04/14 03:36:56;;;;;;;7.15;2.85;;;38.20;72.10;;;;;;5396657;26;20003;-69
2024/04/14 03:39:23;;;;;;;4.18;2.30;;;38.20;71.20;;;;;;5398368;26;20028;-69
2024/04/14 03:41:50;;;;;;;6.68;2.55;;;38.60;70.30;;;;;;5429687;26;20450;-66
2024/04/14 03:44:18;;;;;;;5.10;2.47;;;38.50;71.30;;;;;;5434387;26;20444;-70
2024/04/14 03:46:45;;;;;;;6.38;2.85;;;38.80;69.40;;;;;;5388659;26;20019;-69
2024/04/14 03:49:12;;;;;;;8.82;2.90;;;39.40;69.40;;;;;;5396953;26;20000;-69
2024/04/14 03:51:39;;;;;;;4.80;2.47;;;39.30;69.40;;;;;;5397999;26;19999;-70
2024/04/14 03:54:07;;;;;;;6.47;2.65;;;38.60;69.90;;;;;;5396522;26;19995;-68
2024/04/14 03:56:34;;;;;;;9.98;2.92;;;38.60;70.20;;;;;;5398701;26;20454;-71
2024/04/14 03:59:03;;;;;;;5.90;2.35;;;38.70;70.80;;;;;;5396970;26;19999;-71
2024/04/14 04:01:30;;;;;;;6.75;2.72;;;39.40;70.00;;;;;;5398322;26;19992;-70
2024/04/14 04:03:58;;;;;;;7.78;2.55;;;39.50;69.20;;;;;;5395879;26;19992;-70
2024/04/14 04:06:25;;;;;;;4.30;2.28;;;38.60;69.50;;;;;;5398729;26;19999;-71
2024/04/14 04:08:53;;;;;;;8.50;2.58;;;38.80;70.50;;;;;;5398317;26;19995;-71
2024/04/14 04:11:20;;;;;;;4.93;2.03;;;39.30;70.50;;;;;;5398734;26;20000;-70
2024/04/14 04:13:47;;;;;;;5.38;2.58;;;39.70;69.20;;;;;;5398239;26;20010;-71
2024/04/14 04:16:15;;;;;;;4.80;2.58;;;39.70;68.80;;;;;;5395577;26;20003;-70
2024/04/14 04:18:42;;;;;;;6.22;2.40;;;39.90;68.80;;;;;;5390359;26;20043;-71
2024/04/14 04:21:09;;;;;;;12.25;3.30;;;40.50;67.80;;;;;;5363711;26;20011;-71
2024/04/14 04:23:37;;;;;;;7.05;2.42;;;40.80;67.00;;;;;;5366478;26;20432;-70
2024/04/14 04:26:04;;;;;;;5.95;2.63;;;40.70;66.80;;;;;;5364577;26;20389;-71
2024/04/14 04:28:31;;;;;;;6.00;2.40;;;40.70;67.60;;;;;;5378218;26;20154;-70
2024/04/14 04:31:11;;;;;;;4.45;2.15;;;40.60;66.80;;;;;;5379587;26;20015;-72
2024/04/14 04:33:41;;;;;;;4.18;1.80;;;40.50;66.50;;;;;;5382024;26;20011;-70
2024/04/14 04:36:11;;;;;;;5.82;2.50;;;40.70;66.40;;;;;;5384419;26;20004;-69
2024/04/14 04:38:39;;;;;;;10.63;3.35;;;40.50;65.80;;;;;;5381321;26;20046;-70
2024/04/14 04:41:08;;;;;;;8.23;3.30;;;40.20;66.70;;;;;;5381692;26;20025;-69
2024/04/14 04:43:36;;;;;;;6.95;2.53;;;40.50;66.40;;;;;;5383812;26;20012;-69
2024/04/14 04:46:04;;;;;;;6.13;3.17;;;40.20;66.70;;;;;;5392314;26;20409;-69
2024/04/14 04:48:31;;;;;;;3.90;2.33;;;40.40;66.30;;;;;;5432343;26;20053;-71
2024/04/14 04:50:58;;;;;;;4.28;2.17;;;39.90;66.40;;;;;;5436658;26;20003;-71
2024/04/14 04:53:26;;;;;;;5.40;2.10;;;39.40;67.10;;;;;;5436546;26;19995;-67
2024/04/14 04:55:53;;;;;;;4.97;2.03;;;39.50;67.70;;;;;;5436199;26;19998;-69
2024/04/14 04:58:20;;;;;;;4.05;2.53;;;39.80;67.00;;;;;;5434184;26;20300;-69
2024/04/14 05:00:57;;;;;;;5.45;2.42;;;39.80;66.50;;;;;;5435299;26;20389;-68
2024/04/14 05:03:25;;;;;;;6.20;2.20;;;39.70;66.40;;;;;;5400215;26;19999;-68
2024/04/14 05:06:01;;;;;;;5.00;2.60;;;39.60;67.40;;;;;;5400244;26;19995;-68
2024/04/14 05:08:28;;;;;;;6.78;2.60;;;39.90;67.40;;;;;;5401402;26;20440;-69
2024/04/14 05:10:57;;;;;;;4.80;2.35;;;40.10;66.40;;;;;;5400677;26;20064;-68
2024/04/14 05:13:25;;;;;;;7.13;2.65;;;40.30;66.10;;;;;;5397960;26;20780;-66
2024/04/14 05:15:52;;;;;;;7.80;2.25;;;40.10;66.50;;;;;;5400402;26;20040;-67
2024/04/14 05:18:21;;;;;;;3.88;2.20;;;40.40;66.30;;;;;;5398504;26;20137;-69
2024/04/14 05:20:48;;;;;;;5.78;2.30;;;40.40;65.80;;;;;;5400728;26;19995;-67
2024/04/14 05:23:15;;;;;;;5.05;2.20;;;39.60;66.90;;;;;;5398214;26;20003;-70
2024/04/14 05:25:43;;;;;;;6.28;2.20;;;38.80;67.80;;;;;;5399964;26;20009;-68
2024/04/14 05:28:11;;;;;;;5.18;2.20;;;39.10;67.70;;;;;;5397493;26;20041;-69
2024/04/14 05:30:41;;;;;;;5.38;2.65;;;39.20;67.60;;;;;;5399707;26;20328;-67
2024/04/14 05:33:08;;;;;;;9.63;2.03;;;39.60;67.30;;;;;;5399446;26;20006;-69
2024/04/14 05:35:35;;;;;;;5.25;1.75;;;39.50;66.90;;;;;;5400226;26;19995;-70
2024/04/14 05:38:03;;;;;;;5.60;2.20;;;39.30;67.10;;;;;;5400251;26;19999;-66
2024/04/14 05:40:30;;;;;;;6.18;2.40;;;38.90;68.50;;;;;;5399514;26;20086;-68
2024/04/14 05:42:57;;;;;;;5.35;2.40;;;39.10;67.40;;;;;;5399908;26;20424;-69
2024/04/14 05:45:28;;;;;;;5.20;2.50;;;39.10;67.80;;;;;;5398634;26;20085;-70
2024/04/14 05:47:55;;;;;;;6.53;2.03;;;38.90;67.60;;;;;;5400396;26;19995;-67
2024/04/14 05:50:23;;;;;;;3.78;2.45;;;38.90;67.20;;;;;;5397835;26;19999;-69
2024/04/14 05:52:50;;;;;;;4.25;1.90;;;38.50;66.80;;;;;;5400234;26;20065;-67
2024/04/14 05:55:18;;;;;;;4.55;2.05;;;37.90;67.70;;;;;;5397149;26;20061;-68
2024/04/14 05:57:47;;;;;;;4.43;2.20;;;37.80;68.40;;;;;;5400306;26;20010;-69
2024/04/14 06:00:14;;;;;;;5.35;1.88;;;37.70;68.20;;;;;;5367202;26;20007;-69
2024/04/14 06:02:42;;;;;;;5.70;1.77;;;37.10;69.00;;;;;;5400622;26;20003;-69
2024/04/14 06:05:11;;;;;;;5.50;2.13;;;36.80;69.60;;;;;;5397976;26;20003;-70
2024/04/14 06:07:38;;;;;;;4.82;2.08;;;36.60;70.80;;;;;;5399945;26;20015;-68
2024/04/14 06:10:06;;;;;;;5.03;1.75;;;36.90;71.40;;;;;;5397881;26;19995;-69
2024/04/14 06:12:33;;;;;;;5.07;2.10;;;36.90;70.40;;;;;;5398001;26;19998;-66
2024/04/14 06:15:00;;;;;;;7.40;3.03;;;36.80;70.90;;;;;;5398536;26;20064;-67
2024/04/14 06:17:28;;;;;;;5.50;2.42;;;36.80;71.50;;;;;;5391152;26;20459;-68
2024/04/14 06:19:56;;;;;;;8.40;3.70;;;36.20;71.60;;;;;;5383390;26;20000;-68
2024/04/14 06:22:24;;;;;;;8.90;5.22;;;35.30;72.70;;;;;;5361942;26;19996;-67
2024/04/14 06:24:51;;;;;;;7.85;3.13;;;35.10;74.20;;;;;;5364069;26;20894;-67
2024/04/14 06:27:19;;;;;;;10.48;5.20;;;35.00;74.30;;;;;;5372307;26;20014;-68
2024/04/14 06:29:46;;;;;;;9.05;3.67;;;35.10;74.60;;;;;;5381024;26;20019;-68
2024/04/14 06:32:14;;;;;;;8.23;3.60;;;35.20;73.70;;;;;;5381583;26;20003;-68
2024/04/14 06:34:41;;;;;;;7.07;2.85;;;35.10;74.00;;;;;;5381946;26;20000;-69
2024/04/14 06:37:08;;;;;;;5.53;2.83;;;34.90;74.30;;;;;;5382110;26;19996;-68
2024/04/14 06:39:35;;;;;;;6.10;2.78;;;34.70;74.60;;;;;;5377040;26;20140;-68
2024/04/14 06:42:05;;;;;;;8.98;3.13;;;34.40;75.40;;;;;;5382376;26;20015;-69
2024/04/14 06:44:32;;;;;;;8.27;2.97;;;34.40;75.00;;;;;;5380746;26;20440;-68
2024/04/14 06:46:59;;;;;;;9.07;3.20;;;34.20;75.20;;;;;;5383068;26;20022;-69
2024/04/14 06:49:27;;;;;;;8.23;3.13;;;33.80;75.40;;;;;;5378272;26;20374;-68
2024/04/14 06:51:54;;;;;;;9.48;6.78;;;32.90;76.40;;;;;;5379566;26;20444;-69
2024/04/14 06:54:21;;;;;;;9.38;4.28;;;31.80;79.30;;;;;;5380190;26;20004;-68
2024/04/14 06:56:48;;;;;;;7.85;4.05;;;30.70;81.80;;;;;;5383486;26;20004;-69
2024/04/14 06:59:16;;;;;;;8.90;3.75;;;29.50;84.60;;;;;;5379839;26;20012;-69
2024/04/14 07:01:43;;;;;;;10.18;4.00;;;28.40;87.80;;;;;;5392040;26;20014;-68
2024/04/14 07:04:11;;;;;;;7.68;3.90;;;27.60;90.70;;;;;;5397436;26;19999;-69
2024/04/14 07:06:39;;;;;;;9.05;3.47;;;27.00;92.10;;;;;;5390844;26;20005;-67
2024/04/14 07:09:06;;;;;;;8.70;3.55;;;26.50;93.50;;;;;;5379995;26;20017;-69
2024/04/14 07:11:33;;;;;;;6.38;3.13;;;25.90;95.10;;;;;;5361138;26;20134;-69
2024/04/14 07:14:01;;;;;;;5.30;3.78;;;25.50;97.30;;;;;;5390605;26;20333;-68
2024/04/14 07:16:28;;;;;;;9.02;4.80;;;25.20;99.30;;;;;;5359028;26;20007;-69
2024/04/14 07:18:55;;;;;;;10.73;4.55;;;24.90;99.90;;;;;;5371700;26;20000;-69
2024/04/14 07:21:22;;;;;;;7.82;3.92;;;24.80;99.90;;;;;;5394065;26;20000;-70
2024/04/14 07:23:50;;;;;;;9.40;3.67;;;24.50;99.90;;;;;;5398431;26;20035;-67
2024/04/14 07:26:17;;;;;;;10.85;4.60;;;24.30;99.90;;;;;;5397981;26;20007;-68
2024/04/14 07:28:44;;;;;;;7.97;3.90;;;24.20;99.90;;;;;;5379289;26;20588;-69
2024/04/14 07:31:11;;;;;;;7.75;4.28;;;24.00;99.90;;;;;;5362234;26;20004;-68
2024/04/14 07:33:39;;;;;;;7.95;3.85;;;23.80;99.90;;;;;;5361082;26;20011;-68
2024/04/14 07:36:06;;;;;;;9.18;4.53;;;23.60;99.90;;;;;;5362694;26;20019;-66
2024/04/14 07:38:33;;;;;;;7.35;4.15;;;23.60;99.90;;;;;;5377474;26;20459;-68
2024/04/14 07:41:01;;;;;;;11.13;4.65;;;23.40;99.90;;;;;;5398962;26;20010;-67
2024/04/14 07:43:28;;;;;;;7.70;4.82;;;23.40;99.90;;;;;;5387962;26;20011;-66
2024/04/14 07:45:56;;;;;;;7.05;3.92;;;23.30;99.90;;;;;;5373446;26;20004;-66
2024/04/14 07:48:23;;;;;;;6.25;4.32;;;23.20;99.90;;;;;;5384246;26;20010;-68
2024/04/14 07:50:50;;;;;;;7.72;4.13;;;23.10;99.90;;;;;;5378229;26;20012;-67
2024/04/14 07:53:18;;;;;;;8.38;3.80;;;23.10;99.90;;;;;;5376817;26;20008;-70
2024/04/14 07:55:45;;;;;;;7.22;4.10;;;23.10;99.90;;;;;;5378589;26;20006;-68
2024/04/14 07:58:12;;;;;;;7.47;3.58;;;23.00;99.90;;;;;;5382558;26;20072;-67
2024/04/14 08:00:39;;;;;;;7.90;4.10;;;22.90;99.90;;;;;;5374284;26;20000;-69
2024/04/14 08:03:07;;;;;;;7.72;4.50;;;22.90;99.90;;;;;;5380484;26;20285;-68
2024/04/14 08:05:34;;;;;;;4.97;4.18;;;22.80;99.90;;;;;;5406095;26;20001;-67
2024/04/14 08:08:01;;;;;;;7.40;5.30;;;22.70;99.90;;;;;;5381428;26;20026;-67
2024/04/14 08:10:28;;;;;;;7.22;4.55;;;22.70;99.90;;;;;;5379742;26;20037;-68
2024/04/14 08:12:56;;;;;;;8.10;5.45;;;22.70;99.90;;;;;;5377326;26;19999;-69
2024/04/14 08:15:23;;;;;;;9.18;4.18;;;22.60;99.90;;;;;;5391403;26;20022;-66
2024/04/14 08:17:50;;;;;;;9.85;6.00;;;22.60;99.90;;;;;;5379539;26;20001;-70
2024/04/14 08:20:18;;;;;;;7.72;5.25;;;22.50;99.90;;;;;;5378131;26;20078;-69
2024/04/14 08:22:46;;;;;;;9.63;5.82;;;22.50;99.90;;;;;;5401241;26;20047;-67
2024/04/14 08:25:14;;;;;;;12.40;6.57;;;22.40;99.90;;;;;;5392472;26;20028;-68
2024/04/14 08:27:42;;;;;;;6.80;5.57;;;22.40;99.90;;;;;;5377080;26;20016;-68
2024/04/14 08:30:10;;;;;;;11.85;6.75;;;22.40;99.90;;;;;;5376487;26;20014;-69
2024/04/14 08:32:37;;;;;;;10.20;6.88;;;22.30;99.90;;;;;;5375154;26;20079;-68
2024/04/14 08:35:05;;;;;;;12.68;5.88;;;22.30;99.90;;;;;;5396173;26;20000;-67
2024/04/14 08:37:33;;;;;;;10.48;7.50;;;22.10;99.90;;;;;;5378060;26;20011;-68
2024/04/14 08:40:00;;;;;;;13.90;10.60;;;22.10;99.90;;;;;;5366750;26;20012;-68
2024/04/14 08:42:30;;;;;;;11.80;9.45;;;22.00;99.90;;;;;;5367304;26;20743;-68
2024/04/14 08:45:00;;;;;;;13.15;8.85;;;21.90;99.90;;;;;;5386722;26;20019;-68
2024/04/14 08:47:29;;;;;;;14.15;7.13;;;21.90;99.90;;;;;;5394319;26;19999;-67
2024/04/14 08:49:57;;;;;;;11.30;6.90;;;21.80;99.90;;;;;;5394121;26;19995;-68
2024/04/14 08:52:28;;;;;;;9.50;6.45;;;21.80;99.90;;;;;;5415319;26;20045;-68
2024/04/14 08:54:55;;;;;;;9.43;5.30;;;21.80;99.90;;;;;;5395082;26;20400;-67
2024/04/14 08:57:26;;;;;;;10.52;5.35;;;21.80;99.90;;;;;;5386715;26;20530;-67
2024/04/14 08:59:58;;;;;;;8.45;5.60;;;21.70;99.90;;;;;;5376921;26;20461;-68
2024/04/14 09:02:27;;;;;;;;;;;21.70;99.90;;;;;;5381832;26;20012;-68
2024/04/14 09:04:56;;;;;;;11.85;6.15;;;21.70;99.90;;;;;;5378198;26;20389;-68
2024/04/14 09:07:23;;;;;;;10.00;5.60;;;21.70;99.90;;;;;;5381163;26;20032;-68
2024/04/14 09:09:51;;;;;;;8.07;5.10;;;21.70;99.90;;;;;;5379847;26;20041;-68
2024/04/14 09:12:19;;;;;;;8.02;5.50;;;21.60;99.90;;;;;;5410271;26;20344;-68
2024/04/14 09:14:50;;;;;;;7.55;5.25;;;21.60;99.90;;;;;;5395817;26;20003;-68
2024/04/14 09:17:17;;;;;;;9.13;5.80;;;21.60;99.90;;;;;;5394562;26;20007;-69
2024/04/14 09:19:44;;;;;;;9.50;5.88;;;21.60;99.90;;;;;;5378822;26;20000;-68
2024/04/14 09:22:13;;;;;;;11.10;5.95;;;21.60;99.90;;;;;;5382563;26;20031;-69
2024/04/14 09:24:41;;;;;;;8.50;5.20;;;21.50;99.90;;;;;;5383237;26;20078;-67
2024/04/14 09:27:08;;;;;;;10.63;6.50;;;21.50;99.90;;;;;;5380475;26;20015;-68
2024/04/14 09:29:35;;;;;;;9.48;5.95;;;21.50;99.90;;;;;;5384172;26;20452;-68
2024/04/14 09:32:04;;;;;;;12.25;7.72;;;21.60;99.90;;;;;;5377063;26;19999;-69
2024/04/14 09:34:31;;;;;;;9.52;6.88;;;21.50;99.90;;;;;;5380827;26;19999;-68
2024/04/14 09:36:59;;;;;;;9.50;7.03;;;21.50;99.90;;;;;;5382999;26;20000;-67
2024/04/14 09:39:28;;;;;;;9.10;5.82;;;21.50;99.90;;;;;;5379811;26;20032;-68
2024/04/14 09:41:57;;;;;;;11.80;7.07;;;21.50;99.90;;;;;;5414917;26;20020;-69
2024/04/14 09:44:26;;;;;;;10.07;6.50;;;21.50;99.90;;;;;;5381016;26;20034;-69
2024/04/14 09:46:54;;;;;;;11.73;5.88;;;21.50;99.90;;;;;;5380535;26;20076;-68
2024/04/14 09:49:23;;;;;;;9.05;6.38;;;21.50;99.90;;;;;;5397013;26;20000;-69
2024/04/14 09:51:51;;;;;;;7.43;6.18;;;21.50;99.90;;;;;;5384973;26;20015;-68
2024/04/14 09:54:19;;;;;;;8.30;6.63;;;21.50;99.90;;;;;;5362935;26;20011;-68
2024/04/14 09:56:47;;;;;;;8.90;6.57;;;21.50;99.90;;;;;;5365397;26;20007;-69
2024/04/14 09:59:14;;;;;;;6.78;5.40;;;21.50;99.90;;;;;;5379789;26;20018;-69
2024/04/14 10:01:45;;;;;;;10.88;6.35;;;21.40;99.90;;;;;;5388276;26;20023;-69
2024/04/14 10:04:13;;;;;;;12.13;6.20;;;21.40;99.90;;;;;;5362166;26;19996;-67
2024/04/14 10:06:42;;;;;;;10.05;6.32;;;21.40;99.90;;;;;;5364219;26;20519;-67
2024/04/14 10:09:11;;;;;;;9.27;6.13;;;21.30;99.90;;;;;;5382766;26;20391;-67
2024/04/14 10:11:38;;;;;;;8.52;5.82;;;21.30;99.90;;;;;;5379798;26;20014;-67
2024/04/14 10:14:05;;;;;;;10.82;6.10;;;21.30;99.90;;;;;;5364015;26;20066;-68
2024/04/14 10:16:33;;;;;;;9.32;6.75;;;21.30;99.90;;;;;;5362290;26;20004;-68
2024/04/14 10:19:05;;;;;;;9.70;5.70;;;21.30;99.90;;;;;;5392700;26;19999;-68
2024/04/14 10:21:34;;;;;;;9.40;5.88;;;21.30;99.90;;;;;;5389212;26;20012;-67
2024/04/14 10:24:04;;;;;;;10.27;5.50;;;21.30;99.90;;;;;;5379418;26;20000;-67
2024/04/14 10:26:31;;;;;;;7.57;5.15;;;21.20;99.90;;;;;;5384496;26;20081;-68
2024/04/14 10:28:59;;;;;;;9.63;5.65;;;21.20;99.90;;;;;;5384105;26;20004;-67
2024/04/14 10:31:30;;;;;;;8.60;5.40;;;21.20;99.90;;;;;;5382511;26;19996;-68
2024/04/14 10:34:07;;;;;;;8.10;5.43;;;21.10;99.90;;;;;;5392130;26;20323;-68
2024/04/14 10:36:36;;;;;;;9.30;5.20;;;21.10;99.90;;;;;;5380611;26;20004;-67
2024/04/14 10:39:05;;;;;;;9.07;5.43;;;21.10;99.90;;;;;;5382810;26;20068;-68
2024/04/14 10:41:35;;;;;;;8.20;4.72;;;21.10;99.90;;;;;;5375457;26;20000;-68
2024/04/14 10:44:02;;;;;;;7.10;4.80;;;21.00;99.90;;;;;;5380738;26;20004;-67
2024/04/14 10:46:30;;;;;;;9.45;5.03;;;21.00;99.90;;;;;;5380917;26;20023;-69
2024/04/14 10:48:57;;;;;;;9.63;6.05;;;21.00;99.90;;;;;;5381960;26;20045;-69
2024/04/14 10:51:24;;;;;;;13.52;6.53;;;20.90;99.90;;;;;;5380323;26;19999;-68
2024/04/14 10:53:53;;;;;;;8.38;5.30;;;20.90;99.90;;;;;;5379701;26;20000;-66
2024/04/14 10:56:21;;;;;;;8.75;5.63;;;20.90;99.90;;;;;;5376777;26;20344;-67
2024/04/14 10:58:48;;;;;;;9.52;5.50;;;20.70;99.90;;;;;;5384174;26;20008;-69
2024/04/14 11:01:15;;;;;;;9.52;5.68;;;20.70;99.90;;;;;;5381818;26;20452;-68
2024/04/14 11:03:43;;;;;;;10.48;6.32;;;20.70;99.90;;;;;;5383919;26;20010;-68
2024/04/14 11:06:11;;;;;;;9.18;6.35;;;20.60;99.90;;;;;;5394114;26;20003;-68
2024/04/14 11:08:38;;;;;;;6.20;5.55;;;20.50;99.90;;;;;;5381314;26;20356;-67
2024/04/14 11:11:07;;;;;;;9.70;6.68;;;20.60;99.90;;;;;;5386117;26;20006;-68
2024/04/14 11:13:35;;;;;;;7.72;5.35;;;20.50;99.90;;;;;;5425320;26;20395;-69
2024/04/14 11:16:05;;;;;;;8.63;5.30;;;20.50;99.90;;;;;;5376957;26;19996;-66
2024/04/14 11:18:35;;;;;;;9.05;5.43;;;20.50;99.90;;;;;;5381641;26;20007;-70
2024/04/14 11:21:02;;;;;;;9.00;5.47;;;20.30;99.90;;;;;;5374222;26;20008;-69
2024/04/14 11:23:29;;;;;;;9.90;6.32;;;20.30;99.90;;;;;;5382009;26;20347;-69
2024/04/14 11:25:57;;;;;;;8.85;6.07;;;20.30;99.90;;;;;;5374598;26;20076;-69
2024/04/14 11:28:24;;;;;;;11.60;6.30;;;20.30;99.90;;;;;;5391464;26;19995;-68
2024/04/14 11:30:52;;;;;;;9.50;6.05;;;20.30;99.90;;;;;;5391017;26;19995;-70
2024/04/14 11:33:23;;;;;;;9.70;6.18;;;20.30;99.90;;;;;;5388777;26;19996;-68
2024/04/14 11:35:59;;;;;;;10.45;6.40;;;20.20;99.90;;;;;;5375572;26;20011;-68
2024/04/14 11:38:28;;;;;;;9.85;6.38;;;20.20;99.90;;;;;;5380099;26;20007;-69
2024/04/14 11:40:56;;;;;;;9.93;6.22;;;20.10;99.90;;;;;;5389195;26;19999;-68
2024/04/14 11:43:23;;;;;;;10.73;6.50;;;20.10;99.90;;;;;;5396811;26;20499;-68
2024/04/14 11:45:51;;;;;;;12.88;7.35;;;20.00;99.90;;;;;;5374844;26;20073;-68
2024/04/14 11:48:25;;;;;;;9.40;5.78;;;20.00;99.90;;;;;;5376764;26;20346;-68
2024/04/14 11:50:53;;;;;;;12.18;6.70;;;20.00;99.90;;;;;;5378452;26;20251;-66
2024/04/14 11:53:21;;;;;;;9.23;6.72;;;20.00;99.90;;;;;;5405246;26;20007;-69
2024/04/14 11:55:49;;;;;;;13.50;6.90;;;19.90;99.90;;;;;;5378739;26;20011;-69
2024/04/14 11:58:20;;;;;;;13.00;7.30;;;19.90;99.90;;;;;;5380864;26;20106;-67
2024/04/14 12:00:47;;;;;;;10.73;6.22;;;20.00;99.90;;;;;;5378755;26;20357;-69
2024/04/14 12:03:15;;;;;;;8.85;5.97;;;19.90;99.90;;;;;;5376648;26;20000;-68
2024/04/14 12:05:42;;;;;;;8.48;6.57;;;19.90;99.90;;;;;;5407090;26;20045;-71
2024/04/14 12:08:10;;;;;;;9.50;6.10;;;19.90;99.90;;;;;;5422993;26;20018;-69
2024/04/14 12:10:37;;;;;;;10.95;6.80;;;19.90;99.90;;;;;;5378474;26;20012;-69
2024/04/14 12:13:05;;;;;;;9.23;7.00;;;19.70;99.90;;;;;;5374811;26;20011;-68
2024/04/14 12:15:32;;;;;;;10.05;6.55;;;19.80;99.90;;;;;;5378889;26;19999;-67
2024/04/14 12:17:59;;;;;;;8.80;6.30;;;19.70;99.90;;;;;;5387910;26;20016;-69
2024/04/14 12:20:36;;;;;;;10.45;6.55;;;19.70;99.90;;;;;;5387984;26;20031;-68
2024/04/14 12:23:05;;;;;;;8.80;5.85;;;19.70;99.90;;;;;;5394626;26;20004;-66
2024/04/14 12:25:32;;;;;;;10.88;6.68;;;19.60;99.90;;;;;;5365013;26;20446;-67
2024/04/14 12:28:00;;;;;;;10.13;6.00;;;19.70;99.90;;;;;;5360911;26;19996;-68
2024/04/14 12:30:27;;;;;;;8.57;5.82;;;19.60;99.90;;;;;;5361026;26;20000;-68
2024/04/14 12:32:54;;;;;;;11.32;7.05;;;19.70;99.90;;;;;;5361958;26;20342;-67
2024/04/14 12:35:22;;;;;;;8.48;6.85;;;19.60;99.90;;;;;;5364488;26;20077;-67
2024/04/14 12:37:49;;;;;;;13.43;6.63;;;19.50;99.90;;;;;;5360288;26;20011;-68
2024/04/14 12:40:16;;;;;;;11.20;6.65;;;19.60;99.90;;;;;;5394121;26;19996;-67
2024/04/14 12:42:45;;;;;;;12.05;7.25;;;19.50;99.90;;;;;;5393685;26;20337;-68
2024/04/14 12:45:12;;;;;;;11.15;7.22;;;19.50;99.90;;;;;;5384842;26;20010;-67
2024/04/14 12:47:39;;;;;;;8.60;6.93;;;19.40;99.90;;;;;;5400339;26;20088;-67